Time;durP1;ratioP1;P1;durP2;ratioP2;P2;SDS_P1;SDS_P2;PMS_P1;PMS_P2;Temp;Humidity;BMP_temperature;BMP_pressure;BME280_temperature;BME280_humidity;BME280_pressure;Samples;Min_cycle;Max_cycle;Signal;HPM_P1;HPM_P2
2023/08/10 00:01:31;;;;;;;0.80;0.80;;;14.80;99.90;;;;;;5056084;28;20481;-69
2023/08/10 00:03:57;;;;;;;1.10;1.00;;;;;;;;;;5056376;28;20257;-69
2023/08/10 00:06:22;;;;;;;1.33;1.27;;;14.90;99.90;;;;;;5056109;28;20190;-70
2023/08/10 00:08:50;;;;;;;1.53;0.50;;;14.90;99.90;;;;;;5056406;28;20824;-70
2023/08/10 00:11:15;;;;;;;0.40;0.40;;;14.70;99.90;;;;;;5056069;28;20279;-70
2023/08/10 00:13:41;;;;;;;0.60;0.60;;;14.80;99.90;;;;;;5056010;28;20923;-70
2023/08/10 00:16:07;;;;;;;1.30;1.07;;;14.70;99.90;;;;;;5056146;28;20233;-69
2023/08/10 00:18:33;;;;;;;0.80;0.80;;;14.80;99.90;;;;;;5056212;28;20931;-70
2023/08/10 00:20:59;;;;;;;0.93;0.80;;;14.80;99.90;;;;;;5055725;28;20436;-70
2023/08/10 00:23:25;;;;;;;0.80;0.80;;;14.70;99.90;;;;;;5056097;28;20518;-70
2023/08/10 00:25:51;;;;;;;1.47;1.27;;;14.80;99.90;;;;;;5056028;28;20542;-70
2023/08/10 00:28:16;;;;;;;2.10;1.07;;;14.50;99.90;;;;;;5056061;28;20655;-70
2023/08/10 00:30:42;;;;;;;1.63;1.10;;;14.90;99.90;;;;;;5054287;28;20194;-69
2023/08/10 00:33:08;;;;;;;0.40;0.40;;;14.60;99.90;;;;;;5055156;28;20177;-70
2023/08/10 00:35:37;;;;;;;0.53;0.53;;;14.50;99.90;;;;;;5055696;28;20601;-70
2023/08/10 00:38:03;;;;;;;0.70;0.70;;;14.70;99.90;;;;;;5055801;28;20557;-69
2023/08/10 00:40:29;;;;;;;0.70;0.60;;;14.70;99.90;;;;;;5055532;28;20470;-69
2023/08/10 00:42:56;;;;;;;0.97;0.60;;;14.10;99.90;;;;;;5055301;28;20165;-70
2023/08/10 00:45:22;;;;;;;1.70;0.97;;;14.10;99.90;;;;;;5055531;28;20224;-70
2023/08/10 00:47:47;;;;;;;0.90;0.60;;;14.40;99.90;;;;;;5055679;28;20404;-70
2023/08/10 00:50:13;;;;;;;1.97;1.37;;;14.20;99.90;;;;;;5055449;28;20189;-70
2023/08/10 00:52:39;;;;;;;1.33;0.80;;;14.60;99.90;;;;;;5055365;28;20220;-70
2023/08/10 00:55:05;;;;;;;1.33;1.23;;;14.30;99.90;;;;;;5055182;28;20171;-70
2023/08/10 00:57:31;;;;;;;1.10;0.93;;;14.70;99.90;;;;;;5055399;28;20408;-70
2023/08/10 00:59:58;;;;;;;0.70;0.70;;;14.60;99.90;;;;;;5055419;28;20402;-71
2023/08/10 01:02:24;;;;;;;0.67;0.67;;;14.20;99.90;;;;;;5055034;28;20754;-70
2023/08/10 01:04:50;;;;;;;0.90;0.77;;;14.40;99.90;;;;;;5055158;28;20401;-70
2023/08/10 01:07:25;;;;;;;0.50;0.50;;;14.30;99.90;;;;;;5055305;28;20920;-69
2023/08/10 01:10:13;;;;;;;1.33;0.60;;;14.40;99.90;;;;;;5055043;28;20586;-69
2023/08/10 01:13:02;;;;;;;0.83;0.83;;;14.00;99.90;;;;;;5054789;28;20455;-70
2023/08/10 01:15:45;;;;;;;0.40;0.40;;;14.20;99.90;;;;;;5055060;28;20455;-69
2023/08/10 01:18:15;;;;;;;1.10;1.07;;;14.30;99.90;;;;;;5054814;28;20825;-69
2023/08/10 01:20:43;;;;;;;0.50;0.50;;;14.50;99.90;;;;;;5054887;28;20397;-69
2023/08/10 01:23:30;;;;;;;1.63;1.10;;;14.20;99.90;;;;;;5054934;28;20404;-70
2023/08/10 01:25:57;;;;;;;1.20;1.10;;;14.20;99.90;;;;;;5054966;28;20773;-70
2023/08/10 01:28:25;;;;;;;2.33;0.87;;;14.30;99.90;;;;;;5054715;28;20909;-70
2023/08/10 01:30:51;;;;;;;0.40;0.40;;;14.30;99.90;;;;;;5054427;28;20459;-70
2023/08/10 01:33:17;;;;;;;0.60;0.60;;;13.90;99.90;;;;;;5054604;28;20427;-70
2023/08/10 01:35:44;;;;;;;0.40;0.40;;;14.00;99.90;;;;;;5054504;28;20485;-70
2023/08/10 01:38:10;;;;;;;0.87;0.87;;;13.90;99.90;;;;;;5054723;28;20397;-71
2023/08/10 01:40:36;;;;;;;0.80;0.80;;;14.10;99.90;;;;;;5054395;28;20412;-70
2023/08/10 01:43:02;;;;;;;0.93;0.93;;;14.00;99.90;;;;;;5054357;28;20407;-69
2023/08/10 01:45:29;;;;;;;0.70;0.70;;;13.80;99.90;;;;;;5053314;28;20952;-70
2023/08/10 01:48:01;;;;;;;0.50;0.50;;;14.20;99.90;;;;;;5054476;28;20408;-70
2023/08/10 01:50:29;;;;;;;0.80;0.80;;;14.10;99.90;;;;;;5054414;28;20435;-70
2023/08/10 01:52:59;;;;;;;0.60;0.60;;;14.20;99.90;;;;;;5054225;28;20408;-70
2023/08/10 01:55:25;;;;;;;1.23;0.87;;;13.90;99.90;;;;;;5054298;28;20861;-70
2023/08/10 01:57:51;;;;;;;0.90;0.90;;;13.90;99.90;;;;;;5054055;28;20408;-70
2023/08/10 02:00:17;;;;;;;1.00;0.63;;;14.00;99.90;;;;;;5054098;28;20177;-70
2023/08/10 02:02:43;;;;;;;1.90;0.67;;;13.90;99.90;;;;;;5053868;28;20416;-70
2023/08/10 02:05:11;;;;;;;0.67;0.67;;;14.10;99.90;;;;;;5053958;28;20172;-70
2023/08/10 02:07:36;;;;;;;0.40;0.40;;;13.70;99.90;;;;;;5054065;28;20944;-69
2023/08/10 02:10:02;;;;;;;0.90;0.63;;;13.50;99.90;;;;;;5053790;28;20404;-70
2023/08/10 02:12:28;;;;;;;0.87;0.87;;;13.80;99.90;;;;;;5053671;28;20248;-70
2023/08/10 02:14:58;;;;;;;0.83;0.83;;;13.70;99.90;;;;;;5053784;28;20239;-70
2023/08/10 02:17:24;;;;;;;1.17;1.17;;;13.80;99.90;;;;;;5053884;28;20521;-69
2023/08/10 02:19:49;;;;;;;1.17;1.07;;;;;;;;;;5053781;28;20409;-70
2023/08/10 02:22:15;;;;;;;2.93;2.73;;;13.30;99.90;;;;;;5053455;28;20191;-70
2023/08/10 02:24:41;;;;;;;0.83;0.83;;;13.50;99.90;;;;;;5053718;28;20396;-70
2023/08/10 02:27:06;;;;;;;0.60;0.60;;;13.40;99.90;;;;;;5053614;28;20181;-70
2023/08/10 02:29:32;;;;;;;5.57;1.27;;;13.40;99.90;;;;;;5053874;28;20242;-69
2023/08/10 02:32:00;;;;;;;0.40;0.40;;;;;;;;;;5053307;28;20194;-69
2023/08/10 02:34:26;;;;;;;0.80;0.80;;;13.70;99.90;;;;;;5053650;28;20682;-70
2023/08/10 02:36:51;;;;;;;0.60;0.60;;;13.40;99.90;;;;;;5053662;28;20551;-70
2023/08/10 02:39:17;;;;;;;1.53;1.00;;;13.40;99.90;;;;;;5053492;28;20265;-70
2023/08/10 02:41:43;;;;;;;0.93;0.80;;;13.50;99.90;;;;;;5053233;28;20210;-70
2023/08/10 02:44:08;;;;;;;0.83;0.83;;;13.50;99.90;;;;;;5053415;28;20532;-69
2023/08/10 02:46:34;;;;;;;0.53;0.53;;;13.10;99.90;;;;;;5053317;28;20173;-70
2023/08/10 02:48:59;;;;;;;0.60;0.60;;;13.40;99.90;;;;;;5053317;28;20192;-70
2023/08/10 02:51:25;;;;;;;0.90;0.70;;;13.20;99.90;;;;;;5053116;28;20675;-70
2023/08/10 02:53:51;;;;;;;0.87;0.87;;;13.20;99.90;;;;;;5053259;28;20222;-70
2023/08/10 02:56:16;;;;;;;1.43;0.97;;;13.50;99.90;;;;;;5052846;28;20197;-70
2023/08/10 02:58:42;;;;;;;0.50;0.50;;;13.30;99.90;;;;;;5053178;28;20503;-70
2023/08/10 03:01:08;;;;;;;3.60;2.63;;;13.30;99.90;;;;;;5053059;28;20194;-69
2023/08/10 03:03:34;;;;;;;0.50;0.50;;;13.70;99.90;;;;;;5053302;28;20178;-70
2023/08/10 03:06:01;;;;;;;0.50;0.50;;;13.30;99.90;;;;;;5053247;28;20408;-70
2023/08/10 03:08:26;;;;;;;1.03;0.53;;;13.40;99.90;;;;;;5053281;28;20401;-69
2023/08/10 03:10:52;;;;;;;0.40;0.40;;;13.50;99.90;;;;;;5053001;28;20424;-70
2023/08/10 03:13:18;;;;;;;0.73;0.60;;;13.50;99.90;;;;;;5053124;28;20174;-70
2023/08/10 03:15:43;;;;;;;0.50;0.50;;;13.30;99.90;;;;;;5049994;28;20532;-69
2023/08/10 03:18:10;;;;;;;0.60;0.60;;;;;;;;;;5052724;28;20205;-69
2023/08/10 03:20:35;;;;;;;0.40;0.40;;;13.30;99.90;;;;;;5053192;28;20565;-69
2023/08/10 03:23:01;;;;;;;0.50;0.50;;;13.00;99.90;;;;;;5050668;28;20404;-70
2023/08/10 03:25:27;;;;;;;0.43;0.43;;;12.90;99.90;;;;;;5053102;28;20413;-69
2023/08/10 03:27:53;;;;;;;0.80;0.80;;;13.00;99.90;;;;;;5053035;28;20249;-70
2023/08/10 03:30:18;;;;;;;0.80;0.80;;;13.00;99.90;;;;;;5052903;28;20635;-70
2023/08/10 03:32:44;;;;;;;0.40;0.40;;;13.20;99.90;;;;;;5052630;28;20200;-69
2023/08/10 03:35:10;;;;;;;0.40;0.40;;;13.10;99.90;;;;;;5052858;28;20185;-70
2023/08/10 03:37:36;;;;;;;0.50;0.50;;;13.10;99.90;;;;;;5052838;28;20173;-70
2023/08/10 03:40:03;;;;;;;3.20;1.00;;;13.10;99.90;;;;;;5053177;28;20412;-70
2023/08/10 03:42:29;;;;;;;16.23;1.30;;;;;;;;;;5052719;28;20513;-69
2023/08/10 03:44:55;;;;;;;0.70;0.70;;;12.70;99.90;;;;;;5052709;28;20828;-70
2023/08/10 03:47:21;;;;;;;1.73;1.73;;;12.70;99.90;;;;;;5052741;28;20445;-70
2023/08/10 03:49:48;;;;;;;1.03;1.00;;;12.70;99.90;;;;;;5052933;28;20649;-70
2023/08/10 03:52:13;;;;;;;0.60;0.60;;;12.90;99.90;;;;;;5052477;28;20799;-70
2023/08/10 03:54:39;;;;;;;1.10;1.00;;;12.80;99.90;;;;;;5052743;28;20401;-70
2023/08/10 03:57:05;;;;;;;0.60;0.60;;;;;;;;;;5052732;28;20212;-70
2023/08/10 03:59:30;;;;;;;0.90;0.80;;;12.90;99.90;;;;;;5052747;28;20270;-70
2023/08/10 04:01:56;;;;;;;2.83;1.37;;;12.60;99.90;;;;;;5052651;28;20464;-70
2023/08/10 04:04:23;;;;;;;0.30;0.30;;;12.60;99.90;;;;;;5052556;28;20208;-69
2023/08/10 04:06:48;;;;;;;1.43;0.93;;;12.60;99.90;;;;;;5052761;28;20178;-69
2023/08/10 04:09:14;;;;;;;0.90;0.63;;;12.70;99.90;;;;;;5055827;28;20466;-69
2023/08/10 04:11:40;;;;;;;0.43;0.43;;;12.60;99.90;;;;;;5055906;28;20197;-71
2023/08/10 04:14:05;;;;;;;0.97;0.97;;;12.80;99.90;;;;;;5055984;28;20216;-70
2023/08/10 04:16:31;;;;;;;1.60;1.60;;;12.70;99.90;;;;;;5055920;28;20190;-69
2023/08/10 04:18:57;;;;;;;0.90;0.90;;;12.90;99.90;;;;;;5056080;28;20170;-69
2023/08/10 04:21:23;;;;;;;0.50;0.50;;;13.00;99.90;;;;;;5056046;28;20428;-70
2023/08/10 04:23:49;;;;;;;0.90;0.90;;;;;;;;;;5056046;28;20786;-70
2023/08/10 04:26:15;;;;;;;1.90;1.40;;;13.10;99.90;;;;;;5056107;28;20495;-69
2023/08/10 04:28:41;;;;;;;0.40;0.40;;;12.70;99.90;;;;;;5055923;28;20491;-70
2023/08/10 04:31:08;;;;;;;1.10;1.10;;;12.60;99.90;;;;;;5055646;28;20217;-70
2023/08/10 04:33:33;;;;;;;0.60;0.50;;;12.80;99.90;;;;;;5055770;28;20404;-70
2023/08/10 04:35:59;;;;;;;0.40;0.40;;;12.90;99.90;;;;;;5055564;28;20516;-69
2023/08/10 04:38:25;;;;;;;0.40;0.40;;;13.10;99.90;;;;;;5055823;28;20587;-69
2023/08/10 04:40:50;;;;;;;0.90;0.90;;;13.00;99.90;;;;;;5055508;28;20554;-70
2023/08/10 04:43:16;;;;;;;1.60;1.20;;;12.80;99.90;;;;;;5055621;28;20177;-69
2023/08/10 04:45:42;;;;;;;1.17;1.00;;;12.70;99.90;;;;;;5055457;28;20189;-70
2023/08/10 04:48:10;;;;;;;1.27;1.17;;;13.10;99.90;;;;;;5055448;28;20227;-70
2023/08/10 04:50:35;;;;;;;0.67;0.67;;;13.20;99.90;;;;;;5055333;28;20913;-70
2023/08/10 04:53:02;;;;;;;1.20;1.10;;;12.80;99.90;;;;;;5055287;28;20499;-69
2023/08/10 04:55:28;;;;;;;0.60;0.50;;;;;;;;;;5055474;28;20440;-70
2023/08/10 04:57:54;;;;;;;1.17;1.10;;;11.90;99.90;;;;;;5055260;28;20473;-69
2023/08/10 05:00:20;;;;;;;1.73;1.63;;;13.30;99.90;;;;;;5055181;28;20408;-70
2023/08/10 05:02:45;;;;;;;0.80;0.80;;;13.10;99.90;;;;;;5055035;28;20261;-68
2023/08/10 05:05:12;;;;;;;1.00;1.00;;;13.20;99.90;;;;;;5055187;28;20404;-70
2023/08/10 05:07:37;;;;;;;1.40;1.30;;;13.00;99.90;;;;;;5055080;28;20166;-69
2023/08/10 05:10:08;;;;;;;0.70;0.70;;;13.00;99.90;;;;;;5055172;28;20808;-70
2023/08/10 05:12:37;;;;;;;1.23;0.90;;;13.50;99.90;;;;;;5054791;28;20669;-70
2023/08/10 05:15:04;;;;;;;1.70;1.13;;;13.80;99.90;;;;;;5054804;28;20796;-70
2023/08/10 05:17:29;;;;;;;0.97;0.97;;;14.00;99.90;;;;;;5055007;28;20401;-70
2023/08/10 05:19:55;;;;;;;2.53;2.37;;;14.70;99.90;;;;;;5054712;28;20401;-69
2023/08/10 05:22:21;;;;;;;0.60;0.60;;;15.00;99.90;;;;;;5054555;28;20244;-70
2023/08/10 05:24:47;;;;;;;1.90;0.60;;;15.00;99.90;;;;;;5054788;28;20409;-69
2023/08/10 05:27:12;;;;;;;1.63;1.53;;;15.20;99.90;;;;;;5054873;28;20184;-69
2023/08/10 05:29:38;;;;;;;0.40;0.40;;;15.40;99.90;;;;;;5054606;28;20182;-70
2023/08/10 05:32:04;;;;;;;1.07;0.97;;;15.40;99.90;;;;;;5054503;28;20280;-69
2023/08/10 05:34:29;;;;;;;1.33;1.23;;;15.70;99.90;;;;;;5054863;28;20231;-70
2023/08/10 05:36:55;;;;;;;0.93;0.80;;;16.10;99.90;;;;;;5054600;28;20277;-70
2023/08/10 05:39:21;;;;;;;1.50;0.70;;;16.40;99.90;;;;;;5054499;28;20170;-71
2023/08/10 05:41:46;;;;;;;0.80;0.80;;;16.50;99.90;;;;;;5054250;28;20522;-70
2023/08/10 05:44:12;;;;;;;2.73;0.90;;;16.80;99.90;;;;;;5054340;28;20404;-71
2023/08/10 05:46:38;;;;;;;1.00;0.50;;;17.00;99.90;;;;;;5054468;28;20185;-69
2023/08/10 05:49:04;;;;;;;0.77;0.77;;;17.30;99.90;;;;;;5054169;28;20186;-71
2023/08/10 05:51:29;;;;;;;2.00;0.73;;;18.30;99.90;;;;;;5054074;28;20436;-69
2023/08/10 05:53:55;;;;;;;0.93;0.77;;;18.50;98.70;;;;;;5054403;28;20403;-71
2023/08/10 05:56:21;;;;;;;1.03;1.03;;;18.90;98.20;;;;;;5054177;28;20674;-71
2023/08/10 05:58:47;;;;;;;1.10;1.03;;;19.10;97.80;;;;;;5054355;28;20178;-71
2023/08/10 06:01:13;;;;;;;0.70;0.70;;;19.10;97.00;;;;;;5053806;28;20194;-69
2023/08/10 06:03:39;;;;;;;0.60;0.60;;;19.10;99.90;;;;;;5054049;28;20239;-70
2023/08/10 06:06:08;;;;;;;1.50;1.17;;;18.80;97.70;;;;;;5054134;28;20407;-70
2023/08/10 06:08:33;;;;;;;0.40;0.40;;;18.60;97.30;;;;;;5054086;28;20416;-70
2023/08/10 06:11:00;;;;;;;1.43;1.43;;;18.50;97.40;;;;;;5053613;28;20478;-71
2023/08/10 06:13:26;;;;;;;1.57;1.47;;;19.10;99.90;;;;;;5053855;28;20170;-70
2023/08/10 06:15:52;;;;;;;0.60;0.60;;;19.70;99.90;;;;;;5053630;28;20464;-71
2023/08/10 06:18:17;;;;;;;0.80;0.80;;;19.80;99.90;;;;;;5053890;28;20480;-70
2023/08/10 06:20:44;;;;;;;0.70;0.70;;;20.50;99.90;;;;;;5053666;28;20200;-71
2023/08/10 06:23:11;;;;;;;0.70;0.50;;;20.30;95.80;;;;;;5053915;28;20163;-71
2023/08/10 06:25:37;;;;;;;0.50;0.50;;;20.40;95.20;;;;;;5053479;28;20446;-71
2023/08/10 06:28:03;;;;;;;0.83;0.83;;;20.10;99.90;;;;;;5053853;28;20416;-70
2023/08/10 06:30:29;;;;;;;0.77;0.77;;;19.90;99.90;;;;;;5053005;28;20178;-71
2023/08/10 06:32:54;;;;;;;0.80;0.67;;;20.40;99.90;;;;;;5053324;28;20459;-70
2023/08/10 06:35:20;;;;;;;0.80;0.80;;;19.90;99.90;;;;;;5053394;28;20178;-71
2023/08/10 06:37:48;;;;;;;1.17;0.97;;;20.00;99.90;;;;;;5053147;28;20249;-71
2023/08/10 06:40:15;;;;;;;1.07;0.87;;;19.90;95.60;;;;;;5053333;28;20170;-70
2023/08/10 06:42:40;;;;;;;0.80;0.80;;;20.50;99.90;;;;;;5053035;28;20431;-71
2023/08/10 06:45:06;;;;;;;1.60;1.03;;;20.20;96.40;;;;;;5053456;28;20890;-70
2023/08/10 06:47:32;;;;;;;5.03;1.57;;;21.70;99.90;;;;;;5053682;28;20258;-70
2023/08/10 06:49:58;;;;;;;0.40;0.40;;;22.30;93.10;;;;;;5052382;28;20435;-70
2023/08/10 06:52:24;;;;;;;0.87;0.87;;;22.60;99.90;;;;;;5051493;28;20251;-70
2023/08/10 06:54:52;;;;;;;0.60;0.60;;;22.40;91.80;;;;;;5052118;28;20444;-70
2023/08/10 06:57:19;;;;;;;1.23;0.77;;;21.80;99.90;;;;;;5053191;28;20200;-70
2023/08/10 06:59:45;;;;;;;0.70;0.60;;;21.80;99.90;;;;;;5053444;28;20424;-70
2023/08/10 07:02:10;;;;;;;0.80;0.80;;;21.90;94.10;;;;;;5053138;28;20501;-71
2023/08/10 07:04:36;;;;;;;0.70;0.70;;;21.20;99.90;;;;;;5053772;28;20719;-71
2023/08/10 07:07:02;;;;;;;0.80;0.80;;;21.40;94.50;;;;;;5051746;28;20230;-71
2023/08/10 07:09:27;;;;;;;0.70;0.70;;;21.30;94.30;;;;;;5052907;28;20640;-70
2023/08/10 07:11:53;;;;;;;0.70;0.70;;;21.50;99.90;;;;;;5052938;28;20696;-70
2023/08/10 07:14:19;;;;;;;0.60;0.60;;;21.30;95.50;;;;;;5053087;28;20190;-70
2023/08/10 07:16:45;;;;;;;1.10;1.00;;;21.30;95.80;;;;;;5052601;28;20734;-71
2023/08/10 07:19:11;;;;;;;0.87;0.70;;;21.30;99.90;;;;;;5052948;28;20409;-71
2023/08/10 07:21:36;;;;;;;0.70;0.70;;;22.10;99.90;;;;;;5051145;28;20738;-72
2023/08/10 07:24:05;;;;;;;0.90;0.90;;;21.80;99.90;;;;;;5052368;28;20182;-71
2023/08/10 07:26:31;;;;;;;1.00;0.60;;;21.90;94.80;;;;;;5053385;28;20303;-71
2023/08/10 07:28:57;;;;;;;0.83;0.80;;;22.30;99.90;;;;;;5051038;28;20780;-71
2023/08/10 07:31:28;;;;;;;0.60;0.60;;;22.60;99.90;;;;;;5052783;28;20538;-70
2023/08/10 07:33:54;;;;;;;0.53;0.53;;;22.60;93.80;;;;;;5053124;28;20166;-71
2023/08/10 07:36:20;;;;;;;1.07;0.97;;;23.40;99.90;;;;;;5050834;28;20434;-71
2023/08/10 07:38:45;;;;;;;0.40;0.40;;;23.50;92.70;;;;;;5052899;28;20178;-71
2023/08/10 07:41:11;;;;;;;0.80;0.80;;;24.30;91.70;;;;;;5052892;28;20401;-71
2023/08/10 07:43:36;;;;;;;0.70;0.70;;;25.40;90.00;;;;;;5056682;28;20174;-71
2023/08/10 07:46:02;;;;;;;0.77;0.53;;;27.00;85.80;;;;;;5056624;28;20170;-72
2023/08/10 07:48:28;;;;;;;0.50;0.40;;;28.80;78.00;;;;;;5056736;28;20193;-72
2023/08/10 07:50:54;;;;;;;0.70;0.70;;;32.00;65.00;;;;;;5056460;28;20436;-71
2023/08/10 07:53:20;;;;;;;0.50;0.50;;;32.30;63.50;;;;;;5056716;28;20217;-72
2023/08/10 07:55:46;;;;;;;1.13;0.80;;;33.70;57.60;;;;;;5056987;28;20448;-69
2023/08/10 07:58:14;;;;;;;0.73;0.60;;;35.10;55.50;;;;;;5056509;28;20619;-70
2023/08/10 08:00:41;;;;;;;1.43;0.70;;;37.40;71.30;;;;;;5056328;28;20167;-69
2023/08/10 08:03:08;;;;;;;0.70;0.50;;;37.30;47.40;;;;;;5056342;28;20404;-71
2023/08/10 08:05:37;;;;;;;0.70;0.70;;;38.00;45.30;;;;;;5056135;28;20451;-70
2023/08/10 08:08:04;;;;;;;1.67;0.83;;;38.60;42.40;;;;;;5056200;28;20405;-71
2023/08/10 08:10:30;;;;;;;0.70;0.50;;;38.20;55.30;;;;;;5056217;28;20825;-71
2023/08/10 08:12:56;;;;;;;1.80;0.80;;;38.30;41.60;;;;;;5056095;28;20404;-71
2023/08/10 08:15:22;;;;;;;0.70;0.60;;;38.50;41.00;;;;;;5056172;28;20181;-70
2023/08/10 08:18:24;;;;;;;0.70;0.50;;;39.20;41.20;;;;;;5056166;28;20180;-70
2023/08/10 08:20:50;;;;;;;0.60;0.50;;;39.50;39.50;;;;;;5055813;28;20269;-70
2023/08/10 08:23:15;;;;;;;0.63;0.63;;;40.00;39.00;;;;;;5056158;28;20962;-70
2023/08/10 08:25:41;;;;;;;0.73;0.63;;;40.90;38.50;;;;;;5055833;28;20207;-71
2023/08/10 08:28:07;;;;;;;0.63;0.50;;;41.40;36.60;;;;;;5055888;28;20170;-71
2023/08/10 08:30:32;;;;;;;0.60;0.60;;;41.40;50.10;;;;;;5055683;28;20533;-70
2023/08/10 08:32:58;;;;;;;0.97;0.77;;;41.30;37.50;;;;;;5055667;28;20174;-71
2023/08/10 08:35:25;;;;;;;1.03;0.70;;;41.70;36.10;;;;;;5055844;28;20166;-71
2023/08/10 08:37:51;;;;;;;1.53;0.60;;;42.10;35.10;;;;;;5055768;28;20165;-71
2023/08/10 08:40:17;;;;;;;0.90;0.40;;;42.00;35.30;;;;;;5055789;28;20400;-71
2023/08/10 08:42:45;;;;;;;0.70;0.70;;;42.20;34.70;;;;;;5055528;28;20503;-71
2023/08/10 08:45:11;;;;;;;0.73;0.60;;;42.60;34.70;;;;;;5055551;28;20162;-70
2023/08/10 08:47:37;;;;;;;0.80;0.70;;;42.40;33.30;;;;;;5055767;28;20904;-69
2023/08/10 08:50:03;;;;;;;1.03;0.93;;;42.10;35.10;;;;;;5055501;28;20189;-70
2023/08/10 08:52:30;;;;;;;1.20;0.60;;;42.20;35.20;;;;;;5055301;28;20185;-71
2023/08/10 08:54:57;;;;;;;0.40;0.40;;;42.10;34.20;;;;;;5054845;28;20404;-70
2023/08/10 08:57:23;;;;;;;0.50;0.50;;;41.90;34.40;;;;;;5055491;28;20400;-70
2023/08/10 08:59:48;;;;;;;0.73;0.50;;;41.70;33.70;;;;;;5054378;28;20469;-71
2023/08/10 09:02:14;;;;;;;0.53;0.53;;;41.50;33.10;;;;;;5053916;28;20205;-71
2023/08/10 09:04:40;;;;;;;0.93;0.57;;;40.60;33.40;;;;;;5055051;28;20672;-70
2023/08/10 09:07:07;;;;;;;0.60;0.60;;;40.40;54.50;;;;;;5053582;28;20209;-71
2023/08/10 09:09:36;;;;;;;0.50;0.40;;;40.40;33.20;;;;;;5054050;28;20166;-72
2023/08/10 09:12:30;;;;;;;0.60;0.60;;;39.80;34.00;;;;;;5053965;28;20809;-69
2023/08/10 09:15:11;;;;;;;0.70;0.57;;;39.80;35.70;;;;;;5052147;28;20439;-71
2023/08/10 09:17:43;;;;;;;0.50;0.50;;;39.70;35.30;;;;;;5054039;28;20599;-70
2023/08/10 09:20:09;;;;;;;0.97;0.83;;;39.50;35.30;;;;;;5053905;28;20417;-71
2023/08/10 09:22:39;;;;;;;1.00;0.70;;;39.70;35.40;;;;;;5051811;28;20427;-70
2023/08/10 09:25:06;;;;;;;0.50;0.50;;;39.90;35.90;;;;;;5054191;28;20788;-70
2023/08/10 09:27:33;;;;;;;0.57;0.57;;;39.80;34.10;;;;;;5053772;28;20456;-69
2023/08/10 09:30:07;;;;;;;0.50;0.40;;;39.70;34.90;;;;;;5052840;28;20417;-70
2023/08/10 09:32:33;;;;;;;0.70;0.70;;;38.70;35.10;;;;;;5054568;28;20428;-71
2023/08/10 09:34:59;;;;;;;0.77;0.60;;;38.50;37.10;;;;;;5055292;28;20487;-69
2023/08/10 09:37:25;;;;;;;0.70;0.60;;;38.50;36.50;;;;;;5054562;28;20514;-72
2023/08/10 09:39:55;;;;;;;1.27;0.90;;;39.00;35.60;;;;;;5054774;28;20408;-71
2023/08/10 09:42:21;;;;;;;0.50;0.50;;;38.90;35.80;;;;;;5054315;28;20499;-69
2023/08/10 09:44:48;;;;;;;1.10;1.00;;;38.30;36.80;;;;;;5054310;28;20607;-70
2023/08/10 09:47:15;;;;;;;0.50;0.50;;;38.00;36.10;;;;;;5054412;28;20202;-70
2023/08/10 09:50:05;;;;;;;0.57;0.57;;;37.30;37.40;;;;;;5054105;28;20510;-70
2023/08/10 09:52:32;;;;;;;1.47;0.90;;;36.70;37.40;;;;;;5054174;28;20474;-70
2023/08/10 09:54:58;;;;;;;0.93;0.70;;;36.40;39.20;;;;;;5054384;28;20487;-69
2023/08/10 09:57:25;;;;;;;0.97;0.70;;;36.50;38.50;;;;;;5054333;28;20444;-70
2023/08/10 09:59:51;;;;;;;0.70;0.70;;;36.10;38.30;;;;;;5054071;28;20182;-70
2023/08/10 10:02:20;;;;;;;0.50;0.50;;;36.10;38.30;;;;;;5053936;28;20481;-70
2023/08/10 10:04:46;;;;;;;0.87;0.80;;;;;;;;;;5053561;28;20488;-70
2023/08/10 10:07:13;;;;;;;0.80;0.60;;;36.20;38.10;;;;;;5053471;28;20460;-71
2023/08/10 10:09:43;;;;;;;0.50;0.50;;;36.10;39.70;;;;;;5054106;28;20416;-69
2023/08/10 10:12:11;;;;;;;1.17;0.60;;;36.40;39.40;;;;;;5053603;28;20425;-71
2023/08/10 10:14:42;;;;;;;0.50;0.50;;;36.30;39.00;;;;;;5053689;28;20433;-71
2023/08/10 10:17:25;;;;;;;0.90;0.60;;;36.00;38.20;;;;;;5052312;28;20499;-70
2023/08/10 10:19:51;;;;;;;1.23;0.70;;;35.70;39.50;;;;;;5053204;28;20420;-71
2023/08/10 10:22:20;;;;;;;0.70;0.70;;;35.50;39.80;;;;;;5053706;28;20982;-71
2023/08/10 10:24:47;;;;;;;0.60;0.60;;;35.00;42.20;;;;;;5053895;28;20412;-69
2023/08/10 10:27:14;;;;;;;0.53;0.53;;;35.20;39.60;;;;;;5053626;28;20482;-69
2023/08/10 10:29:41;;;;;;;0.50;0.50;;;35.10;66.00;;;;;;5053509;28;20403;-70
2023/08/10 10:32:10;;;;;;;1.33;0.97;;;35.00;42.10;;;;;;5053378;28;20538;-71
2023/08/10 10:34:37;;;;;;;0.60;0.50;;;34.80;41.00;;;;;;5053572;28;20847;-69
2023/08/10 10:37:16;;;;;;;1.07;0.77;;;34.00;40.00;;;;;;5053652;28;20424;-70
2023/08/10 10:39:50;;;;;;;0.70;0.60;;;33.10;42.30;;;;;;5053350;28;20413;-71
2023/08/10 10:42:16;;;;;;;0.87;0.87;;;32.70;42.70;;;;;;5053384;28;20424;-69
2023/08/10 10:45:06;;;;;;;0.93;0.80;;;32.90;45.00;;;;;;5053449;28;20449;-69
2023/08/10 10:47:41;;;;;;;1.27;0.87;;;32.90;45.00;;;;;;5053565;28;20456;-69
2023/08/10 10:50:28;;;;;;;1.80;0.93;;;32.80;45.30;;;;;;5053181;28;20431;-73
2023/08/10 10:53:01;;;;;;;0.63;0.60;;;32.70;45.90;;;;;;5053050;28;20401;-72
2023/08/10 10:55:40;;;;;;;0.70;0.60;;;32.20;44.30;;;;;;5053268;28;20455;-70
2023/08/10 10:58:07;;;;;;;0.50;0.50;;;32.00;44.80;;;;;;5053438;28;20432;-73
2023/08/10 11:00:36;;;;;;;0.73;0.73;;;31.70;64.10;;;;;;5053044;28;20466;-72
2023/08/10 11:03:07;;;;;;;0.60;0.60;;;31.80;44.20;;;;;;5053035;28;20470;-72
2023/08/10 11:05:34;;;;;;;0.70;0.70;;;31.40;48.30;;;;;;5053293;28;20494;-72
2023/08/10 11:08:03;;;;;;;0.80;0.70;;;30.80;49.50;;;;;;5053176;28;20491;-71
2023/08/10 11:10:37;;;;;;;1.43;0.87;;;30.10;56.30;;;;;;5053014;28;20404;-70
2023/08/10 11:13:08;;;;;;;0.60;0.60;;;29.90;47.90;;;;;;5053161;28;20408;-70
2023/08/10 11:15:36;;;;;;;0.83;0.80;;;29.50;49.30;;;;;;5053048;28;20417;-72
2023/08/10 11:18:09;;;;;;;1.27;1.17;;;28.20;80.70;;;;;;5056609;28;20915;-70
2023/08/10 11:20:40;;;;;;;0.70;0.70;;;28.20;79.90;;;;;;5057403;28;20439;-72
2023/08/10 11:23:06;;;;;;;1.37;0.83;;;27.90;80.60;;;;;;5057087;28;20417;-72
2023/08/10 11:25:32;;;;;;;0.60;0.60;;;27.80;81.70;;;;;;5056860;28;20485;-72
2023/08/10 11:27:58;;;;;;;0.80;0.60;;;27.70;51.30;;;;;;5056933;28;20642;-72
2023/08/10 11:30:26;;;;;;;1.23;0.80;;;27.60;85.30;;;;;;5057033;28;20383;-72
2023/08/10 11:32:54;;;;;;;0.70;0.70;;;27.60;52.20;;;;;;5056759;28;20428;-72
2023/08/10 11:35:24;;;;;;;0.50;0.50;;;27.20;83.70;;;;;;5056966;28;20412;-70
2023/08/10 11:37:50;;;;;;;2.60;0.93;;;27.10;81.80;;;;;;5055532;28;20759;-71
2023/08/10 11:40:18;;;;;;;0.70;0.70;;;27.20;52.00;;;;;;5056966;28;20484;-72
2023/08/10 11:42:49;;;;;;;1.03;0.80;;;27.00;52.20;;;;;;5056485;28;20438;-70
2023/08/10 11:45:18;;;;;;;0.80;0.80;;;26.80;85.50;;;;;;5056821;28;20881;-71
2023/08/10 11:47:53;;;;;;;0.80;0.80;;;26.90;55.10;;;;;;5056777;28;20404;-72
2023/08/10 11:50:21;;;;;;;0.60;0.50;;;26.70;88.80;;;;;;5056454;28;20840;-72
2023/08/10 11:52:49;;;;;;;0.80;0.80;;;26.90;55.00;;;;;;5056215;28;20437;-72
2023/08/10 11:55:16;;;;;;;1.00;0.87;;;27.00;77.50;;;;;;5056423;28;20744;-72
2023/08/10 11:57:55;;;;;;;0.73;0.73;;;26.80;80.80;;;;;;5056811;28;20383;-73
2023/08/10 12:00:26;;;;;;;1.80;1.47;;;27.30;55.40;;;;;;5056309;28;20750;-71
2023/08/10 12:03:24;;;;;;;1.53;0.70;;;27.30;55.80;;;;;;5053966;28;20943;-70
2023/08/10 12:05:54;;;;;;;1.47;1.37;;;27.20;85.80;;;;;;5056414;28;20479;-70
2023/08/10 12:08:32;;;;;;;0.73;0.73;;;27.30;84.70;;;;;;5056571;28;20819;-71
2023/08/10 12:11:11;;;;;;;2.30;1.20;;;27.30;83.40;;;;;;5056332;28;20434;-71
2023/08/10 12:13:50;;;;;;;1.00;0.70;;;27.30;84.10;;;;;;5056313;28;20397;-71
2023/08/10 12:16:17;;;;;;;1.77;0.80;;;26.80;88.50;;;;;;5053494;28;20401;-70
2023/08/10 12:18:43;;;;;;;2.93;0.80;;;26.80;87.50;;;;;;5055006;28;20415;-72
2023/08/10 12:21:09;;;;;;;1.27;0.93;;;26.60;89.90;;;;;;5054986;28;20424;-72
2023/08/10 12:23:35;;;;;;;0.80;0.80;;;26.20;79.80;;;;;;5055106;28;20256;-70
2023/08/10 12:26:01;;;;;;;1.43;0.80;;;26.40;83.30;;;;;;5054989;28;20697;-70
2023/08/10 12:28:27;;;;;;;0.73;0.73;;;26.60;88.90;;;;;;5054069;28;20378;-70
2023/08/10 12:30:52;;;;;;;1.23;0.97;;;26.60;56.50;;;;;;5055115;28;20395;-71
2023/08/10 12:33:19;;;;;;;1.10;1.00;;;26.80;83.10;;;;;;5055937;28;20170;-71
2023/08/10 12:35:45;;;;;;;1.03;1.03;;;27.20;90.00;;;;;;5055731;28;20383;-72
2023/08/10 12:38:11;;;;;;;1.13;0.80;;;26.60;81.40;;;;;;5055943;28;20471;-72
2023/08/10 12:40:38;;;;;;;0.70;0.70;;;26.60;87.60;;;;;;5055409;28;20379;-72
2023/08/10 12:43:05;;;;;;;0.67;0.67;;;26.90;56.30;;;;;;5055622;28;20883;-72
2023/08/10 12:45:31;;;;;;;0.60;0.57;;;26.90;56.60;;;;;;5055547;28;20947;-70
2023/08/10 12:47:58;;;;;;;0.50;0.47;;;27.50;90.50;;;;;;5055619;28;20368;-71
2023/08/10 12:50:25;;;;;;;0.80;0.80;;;27.20;57.80;;;;;;5055461;28;20494;-72
2023/08/10 12:52:51;;;;;;;1.70;1.23;;;27.30;57.40;;;;;;5055314;28;20427;-71